sensor_id;sensor_type;location;lat;lon;timestamp;P1;durP1;ratioP1;P2;durP2;ratioP2
10882;SDS011;5494;51.796;10.952;2023-07-20T00:00:02;4.00;;;3.60;;
10882;SDS011;5494;51.796;10.952;2023-07-20T00:02:38;4.00;;;3.70;;
10882;SDS011;5494;51.796;10.952;2023-07-20T00:05:07;3.97;;;3.53;;
10882;SDS011;5494;51.796;10.952;2023-07-20T00:07:35;4.83;;;4.23;;
10882;SDS011;5494;51.796;10.952;2023-07-20T00:10:03;4.87;;;3.80;;
10882;SDS011;5494;51.796;10.952;2023-07-20T00:12:32;4.47;;;3.90;;
10882;SDS011;5494;51.796;10.952;2023-07-20T00:15:02;5.47;;;4.23;;
10882;SDS011;5494;51.796;10.952;2023-07-20T00:17:31;4.43;;;4.03;;
10882;SDS011;5494;51.796;10.952;2023-07-20T00:19:59;4.47;;;4.03;;
10882;SDS011;5494;51.796;10.952;2023-07-20T00:22:28;4.63;;;4.07;;
10882;SDS011;5494;51.796;10.952;2023-07-20T00:24:56;4.27;;;3.97;;
10882;SDS011;5494;51.796;10.952;2023-07-20T00:27:24;4.23;;;3.83;;
10882;SDS011;5494;51.796;10.952;2023-07-20T00:29:52;3.90;;;3.60;;
10882;SDS011;5494;51.796;10.952;2023-07-20T00:32:22;5.40;;;4.27;;
10882;SDS011;5494;51.796;10.952;2023-07-20T00:34:50;3.70;;;3.40;;
10882;SDS011;5494;51.796;10.952;2023-07-20T00:37:18;3.87;;;3.57;;
10882;SDS011;5494;51.796;10.952;2023-07-20T00:39:46;3.30;;;3.00;;
10882;SDS011;5494;51.796;10.952;2023-07-20T00:42:14;3.43;;;3.10;;
10882;SDS011;5494;51.796;10.952;2023-07-20T00:44:43;3.30;;;3.10;;
10882;SDS011;5494;51.796;10.952;2023-07-20T00:47:12;3.23;;;2.93;;
10882;SDS011;5494;51.796;10.952;2023-07-20T00:49:41;3.30;;;3.00;;
10882;SDS011;5494;51.796;10.952;2023-07-20T00:52:10;3.00;;;2.80;;
10882;SDS011;5494;51.796;10.952;2023-07-20T00:54:42;3.13;;;2.83;;
10882;SDS011;5494;51.796;10.952;2023-07-20T00:57:11;3.10;;;2.77;;
10882;SDS011;5494;51.796;10.952;2023-07-20T00:59:42;2.60;;;2.40;;
10882;SDS011;5494;51.796;10.952;2023-07-20T01:02:10;3.20;;;2.90;;
10882;SDS011;5494;51.796;10.952;2023-07-20T01:04:39;3.10;;;2.80;;
10882;SDS011;5494;51.796;10.952;2023-07-20T01:07:11;3.70;;;2.90;;
10882;SDS011;5494;51.796;10.952;2023-07-20T01:09:45;3.70;;;2.73;;
10882;SDS011;5494;51.796;10.952;2023-07-20T01:12:25;4.47;;;3.30;;
10882;SDS011;5494;51.796;10.952;2023-07-20T01:15:00;3.70;;;3.27;;
10882;SDS011;5494;51.796;10.952;2023-07-20T01:17:28;4.43;;;3.27;;
10882;SDS011;5494;51.796;10.952;2023-07-20T01:19:58;3.17;;;2.87;;
10882;SDS011;5494;51.796;10.952;2023-07-20T01:22:36;3.40;;;2.83;;
10882;SDS011;5494;51.796;10.952;2023-07-20T01:25:53;3.50;;;3.27;;
10882;SDS011;5494;51.796;10.952;2023-07-20T01:28:48;5.90;;;3.10;;
10882;SDS011;5494;51.796;10.952;2023-07-20T01:32:06;3.90;;;3.60;;
10882;SDS011;5494;51.796;10.952;2023-07-20T01:34:37;5.60;;;3.20;;
10882;SDS011;5494;51.796;10.952;2023-07-20T01:37:08;3.17;;;2.77;;
10882;SDS011;5494;51.796;10.952;2023-07-20T01:39:38;3.67;;;3.20;;
10882;SDS011;5494;51.796;10.952;2023-07-20T01:42:08;3.23;;;2.93;;
10882;SDS011;5494;51.796;10.952;2023-07-20T01:44:36;3.23;;;3.00;;
10882;SDS011;5494;51.796;10.952;2023-07-20T01:47:04;4.10;;;3.10;;
10882;SDS011;5494;51.796;10.952;2023-07-20T01:49:34;3.10;;;2.90;;
10882;SDS011;5494;51.796;10.952;2023-07-20T01:52:02;3.53;;;3.00;;
10882;SDS011;5494;51.796;10.952;2023-07-20T01:54:31;3.00;;;2.70;;
10882;SDS011;5494;51.796;10.952;2023-07-20T01:56:59;3.73;;;3.13;;
10882;SDS011;5494;51.796;10.952;2023-07-20T01:59:29;3.20;;;2.90;;
10882;SDS011;5494;51.796;10.952;2023-07-20T02:01:57;2.90;;;2.60;;
10882;SDS011;5494;51.796;10.952;2023-07-20T02:04:30;3.83;;;2.70;;
10882;SDS011;5494;51.796;10.952;2023-07-20T02:06:58;3.10;;;2.90;;
10882;SDS011;5494;51.796;10.952;2023-07-20T02:09:26;4.00;;;3.13;;
10882;SDS011;5494;51.796;10.952;2023-07-20T02:11:55;3.50;;;3.03;;
10882;SDS011;5494;51.796;10.952;2023-07-20T02:14:23;5.00;;;3.20;;
10882;SDS011;5494;51.796;10.952;2023-07-20T02:16:54;3.80;;;3.30;;
10882;SDS011;5494;51.796;10.952;2023-07-20T02:19:30;3.67;;;3.10;;
10882;SDS011;5494;51.796;10.952;2023-07-20T02:21:59;3.80;;;3.40;;
10882;SDS011;5494;51.796;10.952;2023-07-20T02:24:29;6.03;;;3.67;;
10882;SDS011;5494;51.796;10.952;2023-07-20T02:26:57;4.27;;;3.87;;
10882;SDS011;5494;51.796;10.952;2023-07-20T02:29:26;4.83;;;4.20;;
10882;SDS011;5494;51.796;10.952;2023-07-20T02:31:54;5.83;;;3.73;;
10882;SDS011;5494;51.796;10.952;2023-07-20T02:34:22;5.47;;;3.93;;
10882;SDS011;5494;51.796;10.952;2023-07-20T02:36:54;4.10;;;3.70;;
10882;SDS011;5494;51.796;10.952;2023-07-20T02:39:24;3.70;;;3.40;;
10882;SDS011;5494;51.796;10.952;2023-07-20T02:41:54;4.23;;;3.83;;
10882;SDS011;5494;51.796;10.952;2023-07-20T02:44:22;4.43;;;3.73;;
10882;SDS011;5494;51.796;10.952;2023-07-20T02:46:50;4.93;;;3.93;;
10882;SDS011;5494;51.796;10.952;2023-07-20T02:49:18;4.60;;;3.93;;
10882;SDS011;5494;51.796;10.952;2023-07-20T02:51:46;4.80;;;4.40;;
10882;SDS011;5494;51.796;10.952;2023-07-20T02:54:16;5.80;;;4.33;;
10882;SDS011;5494;51.796;10.952;2023-07-20T02:56:44;4.00;;;3.70;;
10882;SDS011;5494;51.796;10.952;2023-07-20T02:59:12;4.80;;;4.30;;
10882;SDS011;5494;51.796;10.952;2023-07-20T03:01:41;5.47;;;3.83;;
10882;SDS011;5494;51.796;10.952;2023-07-20T03:04:09;3.67;;;3.27;;
10882;SDS011;5494;51.796;10.952;2023-07-20T03:06:37;5.30;;;3.47;;
10882;SDS011;5494;51.796;10.952;2023-07-20T03:09:05;3.97;;;3.63;;
10882;SDS011;5494;51.796;10.952;2023-07-20T03:11:36;4.03;;;3.67;;
10882;SDS011;5494;51.796;10.952;2023-07-20T03:14:05;4.33;;;3.93;;
10882;SDS011;5494;51.796;10.952;2023-07-20T03:16:33;4.37;;;3.97;;
10882;SDS011;5494;51.796;10.952;2023-07-20T03:19:01;4.80;;;4.27;;
10882;SDS011;5494;51.796;10.952;2023-07-20T03:21:29;4.00;;;3.60;;
10882;SDS011;5494;51.796;10.952;2023-07-20T03:23:58;4.43;;;4.00;;
10882;SDS011;5494;51.796;10.952;2023-07-20T03:26:26;4.23;;;3.93;;
10882;SDS011;5494;51.796;10.952;2023-07-20T03:28:56;4.83;;;4.10;;
10882;SDS011;5494;51.796;10.952;2023-07-20T03:31:24;4.20;;;3.80;;
10882;SDS011;5494;51.796;10.952;2023-07-20T03:33:53;5.00;;;4.30;;
10882;SDS011;5494;51.796;10.952;2023-07-20T03:36:21;5.17;;;4.70;;
10882;SDS011;5494;51.796;10.952;2023-07-20T03:38:49;5.77;;;5.20;;
10882;SDS011;5494;51.796;10.952;2023-07-20T03:41:18;5.63;;;4.90;;
10882;SDS011;5494;51.796;10.952;2023-07-20T03:43:48;6.33;;;4.50;;
10882;SDS011;5494;51.796;10.952;2023-07-20T03:46:18;4.93;;;4.50;;
10882;SDS011;5494;51.796;10.952;2023-07-20T03:48:46;5.77;;;5.17;;
10882;SDS011;5494;51.796;10.952;2023-07-20T03:51:14;6.13;;;5.40;;
10882;SDS011;5494;51.796;10.952;2023-07-20T03:53:43;6.83;;;5.67;;
10882;SDS011;5494;51.796;10.952;2023-07-20T03:56:11;5.37;;;4.97;;
10882;SDS011;5494;51.796;10.952;2023-07-20T03:58:39;6.67;;;5.33;;
10882;SDS011;5494;51.796;10.952;2023-07-20T04:01:08;6.27;;;5.33;;
10882;SDS011;5494;51.796;10.952;2023-07-20T04:03:38;5.70;;;5.20;;
10882;SDS011;5494;51.796;10.952;2023-07-20T04:06:06;5.10;;;4.60;;
10882;SDS011;5494;51.796;10.952;2023-07-20T04:08:35;7.10;;;5.00;;
10882;SDS011;5494;51.796;10.952;2023-07-20T04:11:03;5.07;;;4.23;;
10882;SDS011;5494;51.796;10.952;2023-07-20T04:13:31;8.00;;;4.10;;
10882;SDS011;5494;51.796;10.952;2023-07-20T04:16:00;4.30;;;3.90;;
10882;SDS011;5494;51.796;10.952;2023-07-20T04:18:28;4.47;;;4.03;;
10882;SDS011;5494;51.796;10.952;2023-07-20T04:20:59;4.33;;;3.23;;
10882;SDS011;5494;51.796;10.952;2023-07-20T04:23:27;4.83;;;3.40;;
10882;SDS011;5494;51.796;10.952;2023-07-20T04:25:55;4.00;;;3.60;;
10882;SDS011;5494;51.796;10.952;2023-07-20T04:28:23;5.37;;;3.50;;
10882;SDS011;5494;51.796;10.952;2023-07-20T04:30:52;4.70;;;3.27;;
10882;SDS011;5494;51.796;10.952;2023-07-20T04:33:21;7.43;;;3.17;;
10882;SDS011;5494;51.796;10.952;2023-07-20T04:35:50;4.17;;;3.60;;
10882;SDS011;5494;51.796;10.952;2023-07-20T04:38:27;5.20;;;3.63;;
10882;SDS011;5494;51.796;10.952;2023-07-20T04:41:10;3.87;;;3.47;;
10882;SDS011;5494;51.796;10.952;2023-07-20T04:43:42;5.70;;;3.73;;
10882;SDS011;5494;51.796;10.952;2023-07-20T04:46:17;4.33;;;3.90;;
10882;SDS011;5494;51.796;10.952;2023-07-20T04:48:46;4.13;;;3.77;;
10882;SDS011;5494;51.796;10.952;2023-07-20T04:51:15;5.70;;;3.80;;
10882;SDS011;5494;51.796;10.952;2023-07-20T04:53:50;3.90;;;3.00;;
10882;SDS011;5494;51.796;10.952;2023-07-20T04:56:18;4.87;;;3.27;;
10882;SDS011;5494;51.796;10.952;2023-07-20T04:58:47;3.50;;;2.97;;
10882;SDS011;5494;51.796;10.952;2023-07-20T05:01:16;6.23;;;3.53;;
10882;SDS011;5494;51.796;10.952;2023-07-20T05:03:44;7.37;;;6.23;;
10882;SDS011;5494;51.796;10.952;2023-07-20T05:06:13;3.97;;;3.07;;
10882;SDS011;5494;51.796;10.952;2023-07-20T05:08:41;4.30;;;2.47;;
10882;SDS011;5494;51.796;10.952;2023-07-20T05:11:11;4.93;;;2.40;;
10882;SDS011;5494;51.796;10.952;2023-07-20T05:13:39;5.10;;;2.53;;
10882;SDS011;5494;51.796;10.952;2023-07-20T05:16:07;2.97;;;2.70;;
10882;SDS011;5494;51.796;10.952;2023-07-20T05:18:35;6.23;;;3.03;;
10882;SDS011;5494;51.796;10.952;2023-07-20T05:21:05;6.40;;;3.30;;
10882;SDS011;5494;51.796;10.952;2023-07-20T05:23:34;5.93;;;3.30;;
10882;SDS011;5494;51.796;10.952;2023-07-20T05:26:02;5.07;;;3.50;;
10882;SDS011;5494;51.796;10.952;2023-07-20T05:28:32;5.63;;;3.30;;
10882;SDS011;5494;51.796;10.952;2023-07-20T05:31:02;6.77;;;3.30;;
10882;SDS011;5494;51.796;10.952;2023-07-20T05:33:30;6.00;;;3.63;;
10882;SDS011;5494;51.796;10.952;2023-07-20T05:35:58;6.47;;;4.17;;
10882;SDS011;5494;51.796;10.952;2023-07-20T05:38:26;5.70;;;3.83;;
10882;SDS011;5494;51.796;10.952;2023-07-20T05:40:58;4.97;;;3.80;;
10882;SDS011;5494;51.796;10.952;2023-07-20T05:43:28;6.03;;;4.20;;
10882;SDS011;5494;51.796;10.952;2023-07-20T05:45:58;10.27;;;5.30;;
10882;SDS011;5494;51.796;10.952;2023-07-20T05:48:26;5.67;;;4.87;;
10882;SDS011;5494;51.796;10.952;2023-07-20T05:50:54;5.87;;;4.80;;
10882;SDS011;5494;51.796;10.952;2023-07-20T05:53:22;7.80;;;5.73;;
10882;SDS011;5494;51.796;10.952;2023-07-20T05:55:51;10.40;;;5.93;;
10882;SDS011;5494;51.796;10.952;2023-07-20T05:58:20;7.33;;;5.53;;
10882;SDS011;5494;51.796;10.952;2023-07-20T06:00:49;7.97;;;5.17;;
10882;SDS011;5494;51.796;10.952;2023-07-20T06:03:22;6.77;;;5.20;;
10882;SDS011;5494;51.796;10.952;2023-07-20T06:05:50;6.13;;;4.37;;
10882;SDS011;5494;51.796;10.952;2023-07-20T06:08:19;11.13;;;4.90;;
10882;SDS011;5494;51.796;10.952;2023-07-20T06:10:49;5.17;;;4.30;;
10882;SDS011;5494;51.796;10.952;2023-07-20T06:13:18;4.77;;;3.60;;
10882;SDS011;5494;51.796;10.952;2023-07-20T06:15:46;7.07;;;3.90;;
10882;SDS011;5494;51.796;10.952;2023-07-20T06:18:14;8.27;;;4.17;;
10882;SDS011;5494;51.796;10.952;2023-07-20T06:20:49;6.53;;;3.57;;
10882;SDS011;5494;51.796;10.952;2023-07-20T06:23:18;6.03;;;3.50;;
10882;SDS011;5494;51.796;10.952;2023-07-20T06:25:46;7.50;;;3.73;;
10882;SDS011;5494;51.796;10.952;2023-07-20T06:28:15;6.13;;;3.60;;
10882;SDS011;5494;51.796;10.952;2023-07-20T06:30:44;5.37;;;3.63;;
10882;SDS011;5494;51.796;10.952;2023-07-20T06:33:12;4.87;;;3.97;;
10882;SDS011;5494;51.796;10.952;2023-07-20T06:35:41;8.00;;;3.87;;
10882;SDS011;5494;51.796;10.952;2023-07-20T06:38:11;9.60;;;4.40;;
10882;SDS011;5494;51.796;10.952;2023-07-20T06:40:42;8.30;;;4.23;;
10882;SDS011;5494;51.796;10.952;2023-07-20T06:43:10;5.67;;;4.77;;
10882;SDS011;5494;51.796;10.952;2023-07-20T06:45:41;9.90;;;5.40;;
10882;SDS011;5494;51.796;10.952;2023-07-20T06:48:10;8.77;;;5.27;;
10882;SDS011;5494;51.796;10.952;2023-07-20T06:50:38;9.23;;;4.70;;
10882;SDS011;5494;51.796;10.952;2023-07-20T06:53:06;9.30;;;5.07;;
10882;SDS011;5494;51.796;10.952;2023-07-20T06:55:35;6.93;;;4.43;;
10882;SDS011;5494;51.796;10.952;2023-07-20T06:58:11;5.87;;;4.70;;
10882;SDS011;5494;51.796;10.952;2023-07-20T07:00:39;6.27;;;5.37;;
10882;SDS011;5494;51.796;10.952;2023-07-20T07:03:08;8.00;;;4.87;;
10882;SDS011;5494;51.796;10.952;2023-07-20T07:05:36;8.93;;;5.40;;
10882;SDS011;5494;51.796;10.952;2023-07-20T07:08:05;5.63;;;3.80;;
10882;SDS011;5494;51.796;10.952;2023-07-20T07:10:35;8.40;;;4.63;;
10882;SDS011;5494;51.796;10.952;2023-07-20T07:13:04;7.37;;;4.60;;
10882;SDS011;5494;51.796;10.952;2023-07-20T07:15:33;8.73;;;4.80;;
10882;SDS011;5494;51.796;10.952;2023-07-20T07:18:04;6.27;;;4.67;;
10882;SDS011;5494;51.796;10.952;2023-07-20T07:20:32;8.37;;;5.80;;
10882;SDS011;5494;51.796;10.952;2023-07-20T07:23:00;5.83;;;5.23;;
10882;SDS011;5494;51.796;10.952;2023-07-20T07:25:29;5.17;;;4.50;;
10882;SDS011;5494;51.796;10.952;2023-07-20T07:28:00;7.20;;;5.50;;
10882;SDS011;5494;51.796;10.952;2023-07-20T07:30:28;5.10;;;4.60;;
10882;SDS011;5494;51.796;10.952;2023-07-20T07:32:59;6.53;;;5.63;;
10882;SDS011;5494;51.796;10.952;2023-07-20T07:35:28;6.43;;;5.80;;
10882;SDS011;5494;51.796;10.952;2023-07-20T07:37:56;5.03;;;4.17;;
10882;SDS011;5494;51.796;10.952;2023-07-20T07:40:29;5.40;;;4.53;;
10882;SDS011;5494;51.796;10.952;2023-07-20T07:42:57;5.27;;;4.70;;
10882;SDS011;5494;51.796;10.952;2023-07-20T07:45:27;5.97;;;4.20;;
10882;SDS011;5494;51.796;10.952;2023-07-20T07:47:55;6.13;;;4.23;;
10882;SDS011;5494;51.796;10.952;2023-07-20T07:50:23;6.60;;;4.77;;
10882;SDS011;5494;51.796;10.952;2023-07-20T07:52:51;5.33;;;4.37;;
10882;SDS011;5494;51.796;10.952;2023-07-20T07:55:19;4.17;;;3.73;;
10882;SDS011;5494;51.796;10.952;2023-07-20T07:57:47;3.70;;;3.40;;
10882;SDS011;5494;51.796;10.952;2023-07-20T08:00:17;5.13;;;3.83;;
10882;SDS011;5494;51.796;10.952;2023-07-20T08:02:46;4.40;;;3.90;;
10882;SDS011;5494;51.796;10.952;2023-07-20T08:05:15;5.47;;;3.97;;
10882;SDS011;5494;51.796;10.952;2023-07-20T08:07:43;4.37;;;3.97;;
10882;SDS011;5494;51.796;10.952;2023-07-20T08:10:12;4.27;;;3.97;;
10882;SDS011;5494;51.796;10.952;2023-07-20T08:12:40;5.23;;;4.33;;
10882;SDS011;5494;51.796;10.952;2023-07-20T08:15:10;5.40;;;4.63;;
10882;SDS011;5494;51.796;10.952;2023-07-20T08:17:42;4.30;;;4.00;;
10882;SDS011;5494;51.796;10.952;2023-07-20T08:20:12;5.00;;;4.53;;
10882;SDS011;5494;51.796;10.952;2023-07-20T08:22:42;5.73;;;4.10;;
10882;SDS011;5494;51.796;10.952;2023-07-20T08:25:13;3.63;;;3.33;;
10882;SDS011;5494;51.796;10.952;2023-07-20T08:27:42;3.93;;;3.60;;
10882;SDS011;5494;51.796;10.952;2023-07-20T08:30:12;3.60;;;3.30;;
10882;SDS011;5494;51.796;10.952;2023-07-20T08:32:42;3.70;;;3.50;;
10882;SDS011;5494;51.796;10.952;2023-07-20T08:35:10;3.90;;;3.60;;
10882;SDS011;5494;51.796;10.952;2023-07-20T08:37:41;3.53;;;3.23;;
10882;SDS011;5494;51.796;10.952;2023-07-20T08:40:09;3.00;;;2.80;;
10882;SDS011;5494;51.796;10.952;2023-07-20T08:42:41;3.47;;;3.07;;
10882;SDS011;5494;51.796;10.952;2023-07-20T08:45:11;4.17;;;3.57;;
10882;SDS011;5494;51.796;10.952;2023-07-20T08:47:45;4.13;;;3.77;;
10882;SDS011;5494;51.796;10.952;2023-07-20T08:50:16;4.30;;;3.90;;
10882;SDS011;5494;51.796;10.952;2023-07-20T08:52:44;4.33;;;4.03;;
10882;SDS011;5494;51.796;10.952;2023-07-20T08:55:12;5.33;;;4.83;;
10882;SDS011;5494;51.796;10.952;2023-07-20T08:57:41;4.70;;;3.97;;
10882;SDS011;5494;51.796;10.952;2023-07-20T09:00:14;6.03;;;4.63;;
10882;SDS011;5494;51.796;10.952;2023-07-20T09:02:48;5.27;;;4.77;;
10882;SDS011;5494;51.796;10.952;2023-07-20T09:05:18;5.23;;;4.73;;
10882;SDS011;5494;51.796;10.952;2023-07-20T09:07:47;5.17;;;4.77;;
10882;SDS011;5494;51.796;10.952;2023-07-20T09:10:16;5.50;;;5.00;;
10882;SDS011;5494;51.796;10.952;2023-07-20T09:12:45;5.40;;;4.87;;
10882;SDS011;5494;51.796;10.952;2023-07-20T09:15:13;5.57;;;5.07;;
10882;SDS011;5494;51.796;10.952;2023-07-20T09:17:45;5.13;;;4.73;;
10882;SDS011;5494;51.796;10.952;2023-07-20T09:20:16;4.57;;;4.27;;
10882;SDS011;5494;51.796;10.952;2023-07-20T09:22:50;4.43;;;4.13;;
10882;SDS011;5494;51.796;10.952;2023-07-20T09:25:19;4.20;;;3.90;;
10882;SDS011;5494;51.796;10.952;2023-07-20T09:27:49;4.50;;;4.20;;
10882;SDS011;5494;51.796;10.952;2023-07-20T09:30:18;4.97;;;3.60;;
10882;SDS011;5494;51.796;10.952;2023-07-20T09:32:48;4.20;;;3.90;;
10882;SDS011;5494;51.796;10.952;2023-07-20T09:35:20;3.77;;;3.47;;
10882;SDS011;5494;51.796;10.952;2023-07-20T09:37:53;4.07;;;3.83;;
10882;SDS011;5494;51.796;10.952;2023-07-20T09:40:28;3.90;;;3.60;;
10882;SDS011;5494;51.796;10.952;2023-07-20T09:42:59;3.03;;;2.80;;
10882;SDS011;5494;51.796;10.952;2023-07-20T09:45:33;3.40;;;3.10;;
10882;SDS011;5494;51.796;10.952;2023-07-20T09:48:07;3.00;;;2.80;;
10882;SDS011;5494;51.796;10.952;2023-07-20T09:50:39;2.50;;;2.13;;
10882;SDS011;5494;51.796;10.952;2023-07-20T09:53:11;3.33;;;2.50;;
10882;SDS011;5494;51.796;10.952;2023-07-20T09:55:40;1.83;;;1.73;;
10882;SDS011;5494;51.796;10.952;2023-07-20T09:58:09;2.47;;;2.27;;
10882;SDS011;5494;51.796;10.952;2023-07-20T10:00:38;2.00;;;1.77;;
10882;SDS011;5494;51.796;10.952;2023-07-20T10:03:14;2.97;;;1.80;;
10882;SDS011;5494;51.796;10.952;2023-07-20T10:05:48;1.70;;;1.60;;
10882;SDS011;5494;51.796;10.952;2023-07-20T10:08:24;1.60;;;1.50;;
10882;SDS011;5494;51.796;10.952;2023-07-20T10:10:57;1.73;;;1.20;;
10882;SDS011;5494;51.796;10.952;2023-07-20T10:13:29;3.10;;;1.20;;
10882;SDS011;5494;51.796;10.952;2023-07-20T10:16:01;1.73;;;1.00;;
10882;SDS011;5494;51.796;10.952;2023-07-20T10:18:38;1.20;;;1.03;;
10882;SDS011;5494;51.796;10.952;2023-07-20T10:21:17;1.30;;;0.90;;
10882;SDS011;5494;51.796;10.952;2023-07-20T10:23:53;0.90;;;0.90;;
10882;SDS011;5494;51.796;10.952;2023-07-20T10:26:24;1.60;;;1.03;;
10882;SDS011;5494;51.796;10.952;2023-07-20T10:28:53;1.80;;;0.93;;
10882;SDS011;5494;51.796;10.952;2023-07-20T10:31:22;1.20;;;0.90;;
10882;SDS011;5494;51.796;10.952;2023-07-20T10:33:54;2.00;;;1.20;;
10882;SDS011;5494;51.796;10.952;2023-07-20T10:36:24;2.60;;;1.00;;
10882;SDS011;5494;51.796;10.952;2023-07-20T10:38:57;1.43;;;1.20;;
10882;SDS011;5494;51.796;10.952;2023-07-20T10:41:27;1.50;;;1.17;;
10882;SDS011;5494;51.796;10.952;2023-07-20T10:43:58;1.13;;;1.00;;
10882;SDS011;5494;51.796;10.952;2023-07-20T10:46:34;1.17;;;1.07;;
10882;SDS011;5494;51.796;10.952;2023-07-20T10:49:13;1.40;;;1.00;;
10882;SDS011;5494;51.796;10.952;2023-07-20T10:51:43;2.13;;;1.30;;
10882;SDS011;5494;51.796;10.952;2023-07-20T10:57:23;0.97;;;0.87;;
10882;SDS011;5494;51.796;10.952;2023-07-20T11:02:41;1.30;;;1.20;;
10882;SDS011;5494;51.796;10.952;2023-07-20T11:08:09;3.03;;;1.40;;
10882;SDS011;5494;51.796;10.952;2023-07-20T11:10:39;1.70;;;1.40;;
10882;SDS011;5494;51.796;10.952;2023-07-20T11:13:17;1.90;;;1.20;;
10882;SDS011;5494;51.796;10.952;2023-07-20T11:15:48;1.20;;;1.10;;
10882;SDS011;5494;51.796;10.952;2023-07-20T11:18:32;1.20;;;1.10;;
10882;SDS011;5494;51.796;10.952;2023-07-20T11:21:10;1.10;;;1.00;;
10882;SDS011;5494;51.796;10.952;2023-07-20T11:23:39;1.37;;;1.17;;
10882;SDS011;5494;51.796;10.952;2023-07-20T11:26:07;1.30;;;1.20;;
10882;SDS011;5494;51.796;10.952;2023-07-20T11:28:36;1.27;;;1.17;;
10882;SDS011;5494;51.796;10.952;2023-07-20T11:31:04;2.90;;;1.10;;
10882;SDS011;5494;51.796;10.952;2023-07-20T11:33:32;1.30;;;1.20;;
10882;SDS011;5494;51.796;10.952;2023-07-20T11:36:00;1.67;;;1.20;;
10882;SDS011;5494;51.796;10.952;2023-07-20T11:38:50;1.87;;;1.30;;
10882;SDS011;5494;51.796;10.952;2023-07-20T11:41:19;0.93;;;0.80;;
10882;SDS011;5494;51.796;10.952;2023-07-20T11:43:47;3.07;;;2.07;;
10882;SDS011;5494;51.796;10.952;2023-07-20T11:46:16;4.50;;;2.27;;
10882;SDS011;5494;51.796;10.952;2023-07-20T11:48:44;2.10;;;1.90;;
10882;SDS011;5494;51.796;10.952;2023-07-20T11:51:15;2.37;;;1.60;;
10882;SDS011;5494;51.796;10.952;2023-07-20T11:53:44;1.97;;;1.30;;
10882;SDS011;5494;51.796;10.952;2023-07-20T11:56:15;1.77;;;1.20;;
10882;SDS011;5494;51.796;10.952;2023-07-20T11:58:44;1.50;;;1.40;;
10882;SDS011;5494;51.796;10.952;2023-07-20T12:01:12;3.90;;;1.10;;
10882;SDS011;5494;51.796;10.952;2023-07-20T12:03:41;2.03;;;1.10;;
10882;SDS011;5494;51.796;10.952;2023-07-20T12:06:10;1.80;;;1.10;;
10882;SDS011;5494;51.796;10.952;2023-07-20T12:08:41;2.30;;;0.97;;
10882;SDS011;5494;51.796;10.952;2023-07-20T12:11:11;1.93;;;1.07;;
10882;SDS011;5494;51.796;10.952;2023-07-20T12:13:41;1.47;;;0.80;;
10882;SDS011;5494;51.796;10.952;2023-07-20T12:16:12;1.20;;;0.90;;
10882;SDS011;5494;51.796;10.952;2023-07-20T12:18:43;1.90;;;1.10;;
10882;SDS011;5494;51.796;10.952;2023-07-20T12:21:12;0.80;;;0.80;;
10882;SDS011;5494;51.796;10.952;2023-07-20T12:23:41;1.20;;;1.07;;
10882;SDS011;5494;51.796;10.952;2023-07-20T12:26:09;2.23;;;1.13;;
10882;SDS011;5494;51.796;10.952;2023-07-20T12:28:38;1.57;;;0.90;;
10882;SDS011;5494;51.796;10.952;2023-07-20T12:31:09;2.10;;;0.90;;
10882;SDS011;5494;51.796;10.952;2023-07-20T12:33:40;2.10;;;1.17;;
10882;SDS011;5494;51.796;10.952;2023-07-20T12:36:08;1.10;;;1.00;;
10882;SDS011;5494;51.796;10.952;2023-07-20T12:38:37;1.10;;;0.80;;
10882;SDS011;5494;51.796;10.952;2023-07-20T12:41:05;0.87;;;0.70;;
10882;SDS011;5494;51.796;10.952;2023-07-20T12:43:34;0.70;;;0.70;;
10882;SDS011;5494;51.796;10.952;2023-07-20T12:46:02;1.27;;;0.73;;
10882;SDS011;5494;51.796;10.952;2023-07-20T12:48:31;1.00;;;0.60;;
10882;SDS011;5494;51.796;10.952;2023-07-20T12:50:59;0.90;;;0.80;;
10882;SDS011;5494;51.796;10.952;2023-07-20T12:53:27;0.87;;;0.87;;
10882;SDS011;5494;51.796;10.952;2023-07-20T12:55:56;0.67;;;0.50;;
10882;SDS011;5494;51.796;10.952;2023-07-20T12:58:24;2.40;;;1.10;;
10882;SDS011;5494;51.796;10.952;2023-07-20T13:00:52;1.73;;;0.80;;
10882;SDS011;5494;51.796;10.952;2023-07-20T13:03:20;0.93;;;0.73;;
10882;SDS011;5494;51.796;10.952;2023-07-20T13:05:53;0.80;;;0.80;;
10882;SDS011;5494;51.796;10.952;2023-07-20T13:08:24;1.73;;;0.80;;
10882;SDS011;5494;51.796;10.952;2023-07-20T13:10:53;0.80;;;0.80;;
10882;SDS011;5494;51.796;10.952;2023-07-20T13:13:21;1.40;;;0.80;;
10882;SDS011;5494;51.796;10.952;2023-07-20T13:15:49;1.07;;;0.87;;
10882;SDS011;5494;51.796;10.952;2023-07-20T13:18:17;1.00;;;0.70;;
10882;SDS011;5494;51.796;10.952;2023-07-20T13:20:45;0.60;;;0.60;;
10882;SDS011;5494;51.796;10.952;2023-07-20T13:23:15;0.80;;;0.60;;
10882;SDS011;5494;51.796;10.952;2023-07-20T13:25:43;0.83;;;0.70;;
10882;SDS011;5494;51.796;10.952;2023-07-20T13:28:11;0.70;;;0.70;;
10882;SDS011;5494;51.796;10.952;2023-07-20T13:30:39;1.80;;;0.97;;
10882;SDS011;5494;51.796;10.952;2023-07-20T13:33:07;2.43;;;0.90;;
10882;SDS011;5494;51.796;10.952;2023-07-20T13:35:42;0.70;;;0.70;;
10882;SDS011;5494;51.796;10.952;2023-07-20T13:38:15;0.80;;;0.80;;
10882;SDS011;5494;51.796;10.952;2023-07-20T13:40:43;1.00;;;0.80;;
10882;SDS011;5494;51.796;10.952;2023-07-20T13:43:11;0.60;;;0.60;;
10882;SDS011;5494;51.796;10.952;2023-07-20T13:45:39;0.70;;;0.60;;
10882;SDS011;5494;51.796;10.952;2023-07-20T13:48:08;1.03;;;0.60;;
10882;SDS011;5494;51.796;10.952;2023-07-20T13:50:36;0.80;;;0.63;;
10882;SDS011;5494;51.796;10.952;2023-07-20T13:53:07;1.23;;;0.90;;
10882;SDS011;5494;51.796;10.952;2023-07-20T13:55:39;0.70;;;0.70;;
10882;SDS011;5494;51.796;10.952;2023-07-20T13:58:10;0.70;;;0.70;;
10882;SDS011;5494;51.796;10.952;2023-07-20T14:00:39;0.90;;;0.77;;
10882;SDS011;5494;51.796;10.952;2023-07-20T14:03:08;2.37;;;0.90;;
10882;SDS011;5494;51.796;10.952;2023-07-20T14:05:39;3.87;;;1.00;;
10882;SDS011;5494;51.796;10.952;2023-07-20T14:08:10;1.33;;;0.90;;
10882;SDS011;5494;51.796;10.952;2023-07-20T14:10:39;2.10;;;0.80;;
10882;SDS011;5494;51.796;10.952;2023-07-20T14:13:10;0.80;;;0.60;;
10882;SDS011;5494;51.796;10.952;2023-07-20T14:15:38;0.87;;;0.80;;
10882;SDS011;5494;51.796;10.952;2023-07-20T14:18:07;1.67;;;0.70;;
10882;SDS011;5494;51.796;10.952;2023-07-20T14:20:35;1.67;;;0.70;;
10882;SDS011;5494;51.796;10.952;2023-07-20T14:23:05;1.77;;;0.80;;
10882;SDS011;5494;51.796;10.952;2023-07-20T14:25:33;1.77;;;0.70;;
10882;SDS011;5494;51.796;10.952;2023-07-20T14:28:05;1.03;;;0.90;;
10882;SDS011;5494;51.796;10.952;2023-07-20T14:30:33;0.80;;;0.80;;
10882;SDS011;5494;51.796;10.952;2023-07-20T14:33:01;1.73;;;0.80;;
10882;SDS011;5494;51.796;10.952;2023-07-20T14:35:30;1.90;;;0.83;;
10882;SDS011;5494;51.796;10.952;2023-07-20T14:37:59;1.20;;;0.77;;
10882;SDS011;5494;51.796;10.952;2023-07-20T14:40:27;0.60;;;0.60;;
10882;SDS011;5494;51.796;10.952;2023-07-20T14:42:56;0.70;;;0.67;;
10882;SDS011;5494;51.796;10.952;2023-07-20T14:45:26;1.37;;;0.80;;
10882;SDS011;5494;51.796;10.952;2023-07-20T14:47:54;1.20;;;0.80;;
10882;SDS011;5494;51.796;10.952;2023-07-20T14:50:23;1.43;;;0.70;;
10882;SDS011;5494;51.796;10.952;2023-07-20T14:52:51;0.87;;;0.80;;
10882;SDS011;5494;51.796;10.952;2023-07-20T14:55:19;2.07;;;0.90;;
10882;SDS011;5494;51.796;10.952;2023-07-20T14:57:49;0.80;;;0.60;;
10882;SDS011;5494;51.796;10.952;2023-07-20T15:00:17;2.20;;;0.87;;
10882;SDS011;5494;51.796;10.952;2023-07-20T15:02:47;0.80;;;0.80;;
10882;SDS011;5494;51.796;10.952;2023-07-20T15:05:20;1.17;;;0.80;;
10882;SDS011;5494;51.796;10.952;2023-07-20T15:07:48;7.60;;;0.90;;
10882;SDS011;5494;51.796;10.952;2023-07-20T15:10:17;1.10;;;0.70;;
10882;SDS011;5494;51.796;10.952;2023-07-20T15:12:45;2.10;;;0.73;;